Time;durP1;ratioP1;P1;durP2;ratioP2;P2;SDS_P1;SDS_P2;PMS_P1;PMS_P2;Temp;Humidity;BMP_temperature;BMP_pressure;BME280_temperature;BME280_humidity;BME280_pressure;Samples;Min_cycle;Max_cycle;Signal;HPM_P1;HPM_P2
2022/12/15 00:38:43;;;;;;;7.03;3.58;;;;;;;-3.32;83.84;99747.81;5094850;28;20071;-42
2022/12/15 00:41:14;;;;;;;5.55;2.55;;;;;;;-3.33;83.71;99744.41;5105252;28;20160;-44
2022/12/15 00:43:40;;;;;;;4.30;1.85;;;;;;;-3.35;83.43;99745.22;5100463;28;20032;-44
2022/12/15 00:48:51;;;;;;;6.30;2.88;;;;;;;-3.44;83.85;99717.91;5100288;28;20093;-43
2022/12/15 00:51:18;;;;;;;2.55;1.83;;;;;;;-3.42;83.32;99719.66;5092709;28;20031;-45
2022/12/15 01:21:12;;;;;;;7.28;3.65;;;;;;;-3.36;83.80;99762.16;5069103;28;20527;-43
2022/12/15 01:23:39;;;;;;;5.35;2.60;;;;;;;-3.46;84.16;99760.22;5103232;28;20062;-44
2022/12/15 01:26:06;;;;;;;5.70;2.50;;;;;;;-3.48;84.11;99770.34;5107063;28;20498;-45
2022/12/15 01:28:32;;;;;;;6.45;2.83;;;;;;;-3.80;84.50;99730.63;5101930;28;20122;-44
2022/12/15 01:30:58;;;;;;;10.20;4.07;;;;;;;-3.59;84.58;99776.84;5084487;28;20486;-45
2022/12/15 01:33:24;;;;;;;3.80;2.28;;;;;;;-3.64;84.89;99778.44;5098338;28;20071;-44
2022/12/15 01:36:00;;;;;;;5.03;2.75;;;;;;;-3.68;84.98;99780.88;5104566;28;20070;-45
2022/12/15 01:38:27;;;;;;;5.55;2.67;;;;;;;-3.73;85.27;99782.44;5093886;28;20089;-44
2022/12/15 01:40:55;;;;;;;6.57;2.83;;;;;;;-3.76;85.58;99773.06;5107959;28;20032;-43
2022/12/15 01:43:23;;;;;;;14.23;3.67;;;;;;;-3.83;85.78;99763.59;5104933;28;20053;-43
2022/12/15 01:45:55;;;;;;;5.47;2.75;;;;;;;-4.10;85.94;99730.75;5095948;28;20047;-43
2022/12/15 01:48:54;;;;;;;7.25;3.33;;;;;;;-3.84;86.58;99779.63;5100876;28;20048;-44
2022/12/15 01:51:39;;;;;;;6.57;3.70;;;;;;;-3.91;86.75;99778.63;5104646;28;20593;-43
2022/12/15 01:54:29;;;;;;;5.18;2.67;;;;;;;-3.91;86.65;99791.31;5066856;28;20048;-42
2022/12/15 01:57:03;;;;;;;5.47;2.65;;;;;;;-3.91;87.25;99781.16;5099042;28;20046;-43
2022/12/15 01:59:33;;;;;;;4.32;2.25;;;;;;;-3.87;87.11;99792.25;5097670;28;20073;-43
2022/12/15 02:01:59;;;;;;;6.20;3.20;;;;;;;-3.82;87.32;99793.22;5106985;28;20048;-44
2022/12/15 02:04:26;;;;;;;9.18;4.50;;;;;;;-3.77;87.47;99794.22;5100042;28;20569;-44
2022/12/15 02:06:51;;;;;;;8.60;4.00;;;;;;;-3.94;86.86;99763.31;5068846;28;20099;-44
2022/12/15 02:09:18;;;;;;;6.05;2.92;;;;;;;-3.75;86.71;99810.34;5102715;28;20043;-44
2022/12/15 02:11:58;;;;;;;7.40;3.63;;;;;;;-3.78;87.19;99797.56;5090066;28;20070;-44
2022/12/15 02:14:46;;;;;;;11.50;4.57;;;;;;;-4.03;86.46;99770.69;5099000;28;20036;-43
2022/12/15 02:17:25;;;;;;;5.72;3.20;;;;;;;-3.87;86.64;99805.81;5103229;28;20542;-42
2022/12/15 02:20:17;;;;;;;4.57;3.30;;;;;;;-3.92;86.92;99811.59;5080593;28;20044;-44
2022/12/15 02:23:19;;;;;;;8.65;5.03;;;;;;;-3.91;87.33;99815.84;5091019;28;20115;-43
2022/12/15 02:25:45;;;;;;;9.70;4.32;;;;;;;-3.85;87.41;99814.34;5107141;28;20035;-43
2022/12/15 02:28:19;;;;;;;10.70;3.90;;;;;;;-3.76;87.10;99811.16;5084815;28;20412;-45
2022/12/15 02:33:57;;;;;;;8.35;4.15;;;;;;;-3.79;87.05;99793.31;5088157;28;20562;-44
2022/12/15 02:36:28;;;;;;;13.05;5.10;;;;;;;-3.50;86.76;99825.34;5099508;28;20032;-43
2022/12/15 02:38:54;;;;;;;12.18;4.13;;;;;;;-3.36;86.84;99832.44;5098862;28;20043;-44
2022/12/15 02:41:34;;;;;;;10.57;5.10;;;;;;;-3.67;86.26;99769.88;5110473;28;20575;-45
2022/12/15 02:44:01;;;;;;;8.95;3.10;;;;;;;-3.22;86.21;99829.41;5089680;28;20055;-45
2022/12/15 02:46:37;;;;;;;8.15;3.90;;;;;;;-3.22;85.85;99824.31;5057141;28;20124;-46
2022/12/15 02:49:30;;;;;;;7.20;3.28;;;;;;;-3.19;85.33;99814.19;5093841;28;20047;-44
2022/12/15 02:52:04;;;;;;;12.30;4.43;;;;;;;-3.40;84.85;99779.84;5105416;28;20088;-44
2022/12/15 02:55:06;;;;;;;8.73;3.95;;;;;;;-3.16;84.25;99818.50;5106818;28;20036;-43
2022/12/15 02:57:52;;;;;;;5.43;3.15;;;;;;;-3.13;83.85;99834.69;5103770;28;20032;-44
2022/12/15 03:00:18;;;;;;;8.63;4.18;;;;;;;-3.11;83.55;99822.88;5091572;28;20035;-43
2022/12/15 03:02:47;;;;;;;6.88;3.17;;;;;;;-3.06;83.30;99815.34;5107462;28;20083;-45
2022/12/15 03:05:13;;;;;;;;;;;;;;;-3.03;83.19;99828.09;5123016;27;20515;-44
2022/12/15 03:07:41;;;;;;;6.82;3.05;;;;;;;-3.10;82.37;99816.09;5094390;28;19961;-44
2022/12/15 03:10:11;;;;;;;7.60;3.65;;;;;;;-3.10;82.25;99821.19;5100362;28;20462;-44
2022/12/15 03:12:36;;;;;;;;;;;;;;;-3.09;81.90;99823.75;5073773;28;20036;-42
2022/12/15 03:15:03;;;;;;;8.63;3.90;;;;;;;-3.22;81.43;99798.88;5072575;28;19920;-44
2022/12/15 03:17:29;;;;;;;8.25;3.85;;;;;;;-3.25;81.53;99796.28;5092648;28;20122;-43
2022/12/15 03:19:54;;;;;;;6.75;2.78;;;;;;;-3.12;80.94;99822.81;5089937;28;20143;-43
2022/12/15 03:22:21;;;;;;;9.13;3.22;;;;;;;-3.23;80.87;99797.16;5089585;28;20082;-42
2022/12/15 03:24:47;;;;;;;3.65;2.30;;;;;;;-3.03;80.77;99828.97;5066629;28;20134;-43
2022/12/15 03:27:13;;;;;;;4.00;2.47;;;;;;;-3.00;80.70;99831.59;5102888;28;20032;-43
2022/12/15 03:29:39;;;;;;;8.88;3.83;;;;;;;-2.95;80.67;99830.84;5108745;28;20088;-43
2022/12/15 03:32:05;;;;;;;7.97;3.90;;;;;;;-2.92;80.65;99833.44;5103155;28;20032;-42
2022/12/15 03:34:31;;;;;;;8.80;4.07;;;;;;;-2.93;80.55;99831.75;5106844;28;20050;-43
2022/12/15 03:36:57;;;;;;;13.45;4.85;;;;;;;-2.94;80.60;99825.78;5090972;28;20048;-42
2022/12/15 03:39:23;;;;;;;5.00;2.78;;;;;;;-2.80;80.59;99837.09;5095943;28;20130;-45
2022/12/15 03:41:49;;;;;;;10.95;4.80;;;;;;;-3.01;80.59;99796.81;5111294;28;20126;-43
2022/12/15 03:44:15;;;;;;;7.13;3.50;;;;;;;-2.94;80.44;99802.03;5105042;28;20739;-44
2022/12/15 03:46:41;;;;;;;9.80;4.68;;;;;;;-2.76;80.33;99831.25;5089350;28;20075;-43
2022/12/15 03:49:06;;;;;;;10.43;4.80;;;;;;;-2.94;80.17;99804.59;5091287;28;20067;-45
2022/12/15 03:51:32;;;;;;;8.90;4.32;;;;;;;-2.69;80.38;99843.28;5108144;28;20077;-44
2022/12/15 03:53:58;;;;;;;7.43;4.07;;;;;;;-2.85;80.26;99825.13;5057713;28;20097;-43
2022/12/15 03:56:24;;;;;;;9.10;2.92;;;;;;;-2.69;79.88;99850.91;5099632;28;20050;-43
2022/12/15 03:58:50;;;;;;;11.15;5.18;;;;;;;-2.79;80.03;99815.06;5104640;28;20559;-43
2022/12/15 04:01:33;;;;;;;9.90;4.88;;;;;;;-2.71;79.95;99811.84;5096979;28;20782;-45
2022/12/15 04:04:00;;;;;;;8.43;4.28;;;;;;;-2.48;79.65;99844.56;5105840;28;20098;-44
2022/12/15 04:06:26;;;;;;;9.43;4.00;;;;;;;-2.53;79.89;99846.16;5082875;28;20476;-45
2022/12/15 04:08:52;;;;;;;11.07;4.50;;;;;;;-2.50;79.77;99839.41;5095064;28;20051;-43
2022/12/15 04:11:18;;;;;;;9.45;4.13;;;;;;;-2.46;79.64;99851.38;5099759;28;20043;-43
2022/12/15 04:13:44;;;;;;;10.50;4.28;;;;;;;-2.55;79.64;99848.66;5095806;28;20522;-44
2022/12/15 04:16:10;;;;;;;10.45;4.93;;;;;;;-2.56;79.26;99850.34;5087517;28;20139;-43
2022/12/15 04:18:36;;;;;;;7.90;4.47;;;;;;;-2.54;79.57;99852.91;5073474;28;20147;-44
2022/12/15 04:21:02;;;;;;;5.97;2.90;;;;;;;-2.53;79.30;99866.50;5108103;28;20043;-43
2022/12/15 04:23:28;;;;;;;9.63;4.47;;;;;;;-2.58;79.28;99866.41;5093649;28;20490;-44
2022/12/15 05:32:02;;;;;;;12.63;4.95;;;;;;;-2.78;80.13;99918.56;5102945;28;20056;-44
2022/12/15 05:34:30;;;;;;;7.22;3.55;;;;;;;-2.82;80.12;99916.75;5085443;28;20580;-42
2022/12/15 05:36:57;;;;;;;11.07;5.07;;;;;;;-2.89;80.72;99915.78;5096505;28;20039;-44
2022/12/15 05:39:24;;;;;;;14.43;4.78;;;;;;;-2.86;80.63;99927.69;5085284;28;20148;-42
2022/12/15 05:41:51;;;;;;;9.75;4.85;;;;;;;-3.05;80.71;99893.34;5100923;28;20062;-45
2022/12/15 05:44:17;;;;;;;9.38;4.70;;;;;;;-3.03;80.52;99906.94;5097872;28;20077;-43
2022/12/15 05:46:43;;;;;;;10.55;4.70;;;;;;;-3.06;80.87;99905.19;5106337;27;20129;-43
2022/12/15 05:49:13;;;;;;;6.60;3.10;;;;;;;-3.12;81.02;99894.03;5092453;28;20067;-42
2022/12/15 05:51:40;;;;;;;9.32;4.40;;;;;;;-2.93;80.52;99936.03;5087851;28;20043;-42
2022/12/15 05:54:07;;;;;;;5.35;2.30;;;;;;;-2.99;80.91;99944.38;5108305;27;20166;-44
2022/12/15 05:56:34;;;;;;;9.20;4.30;;;;;;;-3.05;80.35;99946.75;5096985;28;20043;-43
2022/12/15 05:59:00;;;;;;;12.45;5.00;;;;;;;-3.26;80.13;99915.72;5075821;28;20052;-42
2022/12/15 06:01:27;;;;;;;10.23;4.50;;;;;;;-3.11;80.08;99952.53;5093803;28;20043;-43
2022/12/15 06:03:52;;;;;;;4.78;2.03;;;;;;;-3.14;79.65;99944.81;5091333;28;20066;-42
2022/12/15 06:06:19;;;;;;;6.55;2.55;;;;;;;-3.10;80.09;99955.94;5091829;28;20040;-43
2022/12/15 06:08:46;;;;;;;9.38;4.53;;;;;;;-3.13;79.85;99948.22;5094035;28;20031;-45
2022/12/15 06:11:13;;;;;;;3.42;2.38;;;;;;;-3.10;79.88;99950.88;5070516;28;20032;-43
2022/12/15 06:13:40;;;;;;;7.03;3.08;;;;;;;-3.09;79.71;99962.75;5090581;28;20126;-41
2022/12/15 06:16:26;;;;;;;10.05;3.53;;;;;;;-3.12;79.59;99943.19;5099086;28;20036;-41
2022/12/15 06:18:55;;;;;;;5.82;2.40;;;;;;;-3.18;79.13;99952.34;5097894;28;20130;-43
2022/12/15 06:21:34;;;;;;;7.05;3.67;;;;;;;-3.29;78.95;99961.38;5093302;28;20112;-42
2022/12/15 06:24:01;;;;;;;7.18;4.00;;;;;;;-3.38;79.22;99954.41;5084215;28;20130;-43
2022/12/15 06:26:29;;;;;;;9.93;3.70;;;;;;;-3.62;79.29;99920.75;5092007;28;20032;-45
2022/12/15 06:28:57;;;;;;;10.10;4.65;;;;;;;-3.79;79.29;99897.44;5092044;28;20039;-42
2022/12/15 06:31:24;;;;;;;11.50;4.85;;;;;;;-3.47;79.63;99957.56;5102973;28;20419;-42
2022/12/15 06:33:51;;;;;;;8.90;4.25;;;;;;;-3.44;80.12;99972.03;5095206;28;20035;-42
2022/12/15 06:36:17;;;;;;;12.07;5.10;;;;;;;-3.42;80.09;99975.47;5112426;28;20058;-43
2022/12/15 06:38:44;;;;;;;10.07;4.30;;;;;;;-3.65;80.05;99939.28;5088599;28;20031;-42
2022/12/15 06:41:12;;;;;;;10.00;4.82;;;;;;;-3.39;79.93;99970.47;5055461;28;20144;-42
2022/12/15 06:43:38;;;;;;;8.80;3.05;;;;;;;-3.34;80.14;99975.66;5075061;28;20040;-42
2022/12/15 06:46:04;;;;;;;13.95;5.25;;;;;;;-3.54;79.91;99944.66;5105909;28;20052;-43
2022/12/15 06:48:30;;;;;;;5.40;2.92;;;;;;;-3.33;80.37;99978.25;5073705;28;20389;-43
2022/12/15 06:51:02;;;;;;;5.80;2.65;;;;;;;-3.32;79.87;99982.50;5072499;28;20040;-44
2022/12/15 06:53:28;;;;;;;12.30;4.00;;;;;;;-3.29;79.80;99984.25;5073184;28;20572;-43
2022/12/15 06:55:59;;;;;;;8.25;3.00;;;;;;;-3.26;79.60;99992.00;5089235;28;20078;-42
2022/12/15 06:58:25;;;;;;;8.43;4.00;;;;;;;-3.56;79.92;99964.94;5072963;28;20048;-43
2022/12/15 07:00:50;;;;;;;13.82;4.97;;;;;;;-3.36;79.99;99995.97;5090204;28;20051;-41
2022/12/15 07:03:18;;;;;;;6.47;3.03;;;;;;;-3.28;80.08;100004.66;5091009;28;20166;-44
2022/12/15 07:05:44;;;;;;;7.22;4.03;;;;;;;-3.13;79.68;100001.63;5108623;28;20274;-42
2022/12/15 07:08:12;;;;;;;6.88;3.17;;;;;;;-3.23;79.08;100018.34;5093554;28;20043;-42
2022/12/15 07:10:42;;;;;;;5.85;2.85;;;;;;;-3.58;78.69;99992.00;5094415;28;20130;-42
2022/12/15 07:13:10;;;;;;;16.02;6.78;;;;;;;-3.52;78.69;100012.50;5091189;28;20599;-43
2022/12/15 07:15:36;;;;;;;7.05;3.85;;;;;;;-3.90;78.97;99949.63;5079863;28;20043;-42
2022/12/15 07:18:02;;;;;;;6.45;3.70;;;;;;;-3.57;79.66;100015.75;5053045;28;20465;-44
2022/12/15 07:20:29;;;;;;;8.20;4.00;;;;;;;-3.59;79.84;100015.69;5070828;28;20037;-42
2022/12/15 07:22:55;;;;;;;12.20;5.45;;;;;;;-4.04;79.65;99950.94;5052899;28;20032;-49
2022/12/15 07:25:21;;;;;;;12.02;5.22;;;;;;;-3.79;79.95;99995.63;5062871;28;20041;-41
2022/12/15 07:27:47;;;;;;;10.70;5.55;;;;;;;-3.76;80.26;100000.78;5069989;28;20048;-42
2022/12/15 07:30:14;;;;;;;15.73;7.13;;;;;;;-3.64;79.99;100013.84;5071100;28;20036;-44
2022/12/15 07:32:41;;;;;;;17.52;7.32;;;;;;;-3.78;80.54;99985.53;5069778;28;20032;-44
2022/12/15 07:35:08;;;;;;;15.57;7.07;;;;;;;-3.60;80.62;100025.78;5073312;28;20039;-43
2022/12/15 07:37:34;;;;;;;12.93;5.75;;;;;;;-3.63;80.36;100018.97;5091159;28;20126;-45
2022/12/15 07:40:00;;;;;;;18.45;7.22;;;;;;;-3.69;80.38;100020.47;5078612;28;20039;-44
2022/12/15 07:42:28;;;;;;;13.93;6.50;;;;;;;-3.67;80.90;100018.84;5111354;28;20043;-42
2022/12/15 07:44:55;;;;;;;14.57;6.88;;;;;;;-3.78;80.49;100020.22;5083711;28;20043;-43
2022/12/15 07:47:21;;;;;;;19.10;7.55;;;;;;;-3.99;81.04;99990.00;5079277;28;20063;-42
2022/12/15 07:49:46;;;;;;;9.38;4.18;;;;;;;-3.86;80.86;100008.16;5091148;28;20074;-43
2022/12/15 07:52:12;;;;;;;12.15;4.40;;;;;;;-3.75;81.39;100016.06;5073055;28;20446;-43
2022/12/15 07:54:39;;;;;;;8.02;4.00;;;;;;;-3.76;81.35;100023.66;5073070;28;20040;-43
2022/12/15 07:57:06;;;;;;;7.65;3.05;;;;;;;-3.89;80.85;100010.63;5089709;28;20036;-44
2022/12/15 07:59:35;;;;;;;16.67;7.07;;;;;;;-3.90;81.52;100024.13;5088395;28;20102;-44
2022/12/15 08:02:03;;;;;;;17.77;7.60;;;;;;;-3.91;81.19;100022.41;5072899;28;20055;-43
2022/12/15 08:04:30;;;;;;;11.77;6.28;;;;;;;-3.81;81.14;100031.13;5089559;28;20429;-43
2022/12/15 08:06:56;;;;;;;13.77;6.13;;;;;;;-3.82;81.46;100026.03;5090278;28;20048;-45
2022/12/15 08:09:23;;;;;;;14.43;7.68;;;;;;;-3.93;81.46;100039.28;5090857;28;20060;-44
2022/12/15 08:11:49;;;;;;;5.75;3.10;;;;;;;-3.93;81.28;100041.84;5096312;28;20047;-42
2022/12/15 08:14:16;;;;;;;18.17;8.00;;;;;;;-3.96;81.50;100048.47;5086474;28;20032;-44
2022/12/15 08:16:41;;;;;;;12.20;5.70;;;;;;;-4.10;81.62;100006.59;5086543;28;20432;-43
2022/12/15 08:19:12;;;;;;;15.95;7.22;;;;;;;-3.93;81.46;100034.22;5093374;28;20073;-44
2022/12/15 08:21:42;;;;;;;11.55;5.05;;;;;;;-3.83;81.47;100024.31;5100398;28;20070;-44
2022/12/15 08:24:09;;;;;;;16.05;6.45;;;;;;;-3.80;81.18;100027.78;5088251;28;20483;-44
2022/12/15 08:26:36;;;;;;;12.73;5.82;;;;;;;-3.85;81.30;100025.13;5090106;28;20131;-47
2022/12/15 08:29:04;;;;;;;16.85;7.55;;;;;;;-3.99;81.11;99995.09;5105940;28;20044;-46
2022/12/15 08:31:32;;;;;;;17.10;6.90;;;;;;;-3.81;81.14;100018.44;5106320;27;20059;-42
2022/12/15 08:33:59;;;;;;;11.20;4.65;;;;;;;-3.81;81.00;100020.97;5106114;28;20054;-42
2022/12/15 08:36:25;;;;;;;6.03;2.83;;;;;;;-3.83;80.64;100034.47;5089285;28;20055;-43
2022/12/15 08:38:51;;;;;;;13.77;6.07;;;;;;;-3.93;80.72;100031.69;5090130;28;20040;-44
2022/12/15 08:41:22;;;;;;;15.45;7.40;;;;;;;-3.91;80.87;100045.25;5099828;28;20134;-43
2022/12/15 08:43:49;;;;;;;14.30;7.15;;;;;;;-3.93;80.22;100051.13;5100108;28;20130;-44
2022/12/15 08:46:16;;;;;;;13.20;6.30;;;;;;;-3.79;80.31;100037.13;5088173;28;20114;-43
2022/12/15 08:48:43;;;;;;;16.92;6.25;;;;;;;-3.64;80.17;100032.47;5088078;28;20510;-43
2022/12/15 08:51:09;;;;;;;11.23;5.28;;;;;;;-3.77;79.06;100027.91;5080994;28;20035;-44
2022/12/15 08:53:35;;;;;;;12.95;4.72;;;;;;;-3.87;79.64;100023.34;5109809;28;20096;-43
2022/12/15 08:56:04;;;;;;;9.43;4.65;;;;;;;-3.85;79.37;100044.56;5106446;28;20070;-44
2022/12/15 08:58:30;;;;;;;6.22;3.45;;;;;;;-4.17;79.29;100004.69;5089140;28;20047;-43
2022/12/15 09:01:09;;;;;;;3.97;2.38;;;;;;;-4.11;78.98;100030.25;5108302;28;20043;-42
2022/12/15 09:03:35;;;;;;;6.65;3.58;;;;;;;-4.18;78.88;100035.97;5125582;27;20035;-44
2022/12/15 09:06:03;;;;;;;15.30;5.28;;;;;;;-4.21;79.50;100044.34;5109939;28;20498;-49
2022/12/15 09:08:29;;;;;;;9.38;4.25;;;;;;;-4.17;79.37;100051.25;5082796;28;20040;-43
2022/12/15 09:10:59;;;;;;;7.07;3.30;;;;;;;-4.23;79.82;100055.25;5077240;28;20036;-43
2022/12/15 09:13:25;;;;;;;8.00;3.72;;;;;;;-4.38;79.46;100010.00;5109466;28;20123;-45
2022/12/15 09:15:56;;;;;;;8.90;4.68;;;;;;;-4.11;79.65;100042.94;5086220;28;20590;-44
2022/12/15 09:18:22;;;;;;;11.23;5.38;;;;;;;-4.30;79.19;100003.47;5087138;28;20511;-43
2022/12/15 09:20:48;;;;;;;10.40;4.85;;;;;;;-4.30;79.22;99995.88;5089936;28;20050;-46
2022/12/15 09:23:13;;;;;;;11.35;5.00;;;;;;;-4.06;79.28;100027.03;5087351;28;20036;-44
2022/12/15 09:25:39;;;;;;;12.30;4.75;;;;;;;-3.94;79.60;100032.50;5087414;28;20142;-44
2022/12/15 09:28:05;;;;;;;8.77;3.55;;;;;;;-3.67;79.18;100027.34;5087455;28;20131;-43
2022/12/15 09:30:31;;;;;;;14.15;4.78;;;;;;;-3.64;78.23;100022.31;5088850;28;20097;-44
2022/12/15 09:32:57;;;;;;;13.13;4.63;;;;;;;-3.56;77.90;100030.16;5088341;28;20511;-43
2022/12/15 09:35:26;;;;;;;9.82;3.55;;;;;;;-3.45;77.46;100018.59;5088344;28;20175;-43
2022/12/15 09:37:52;;;;;;;10.82;4.57;;;;;;;-3.51;76.98;100003.19;5087445;28;20081;-43
2022/12/15 09:40:19;;;;;;;9.85;5.03;;;;;;;-3.66;77.29;99979.91;5088816;28;20040;-42
2022/12/15 09:42:52;;;;;;;13.13;4.68;;;;;;;-3.56;77.12;100002.22;5096769;28;20130;-43
2022/12/15 09:45:25;;;;;;;10.15;4.45;;;;;;;-3.46;76.26;100001.63;5070910;28;20036;-44
2022/12/15 09:48:19;;;;;;;11.23;5.05;;;;;;;-3.51;76.26;99993.03;5087423;28;20044;-44
2022/12/15 09:50:46;;;;;;;9.98;4.18;;;;;;;-3.47;76.26;99982.13;5079712;28;20605;-46
2022/12/15 09:53:15;;;;;;;11.35;4.55;;;;;;;-3.43;76.22;99983.91;5107744;28;20122;-43
2022/12/15 09:55:42;;;;;;;7.78;3.90;;;;;;;-3.50;76.10;99964.25;5077008;28;20054;-43
2022/12/15 09:58:29;;;;;;;11.55;5.05;;;;;;;-3.55;75.74;99968.34;5087000;28;20590;-42
2022/12/15 10:01:08;;;;;;;12.93;4.65;;;;;;;-3.56;75.56;99954.78;5108907;28;20570;-44
2022/12/15 10:04:13;;;;;;;9.65;4.70;;;;;;;-3.52;75.52;99948.97;5107923;28;20460;-43
2022/12/15 10:06:43;;;;;;;9.60;4.22;;;;;;;-3.47;75.72;99937.25;5097323;28;20040;-43
2022/12/15 10:09:29;;;;;;;5.60;3.20;;;;;;;-3.58;75.15;99943.72;5088647;28;20511;-43
2022/12/15 10:12:00;;;;;;;10.85;5.53;;;;;;;-3.55;75.74;99930.22;5068647;28;20036;-42
2022/12/15 10:14:29;;;;;;;11.50;4.68;;;;;;;-3.45;75.10;99940.66;5085110;28;20048;-43
2022/12/15 10:17:22;;;;;;;7.73;4.07;;;;;;;-3.56;75.32;99906.50;5075595;28;20037;-44
2022/12/15 10:19:56;;;;;;;13.15;5.22;;;;;;;-3.30;75.56;99919.88;5079794;28;20067;-45
2022/12/15 10:22:30;;;;;;;9.65;4.72;;;;;;;-3.27;75.25;99891.13;5086949;28;20079;-44
2022/12/15 10:24:58;;;;;;;14.48;5.25;;;;;;;-3.11;74.98;99923.72;5087855;28;20035;-48
2022/12/15 10:27:34;;;;;;;9.77;5.35;;;;;;;-3.10;75.02;99941.56;5067008;28;20044;-47
2022/12/15 10:30:06;;;;;;;14.27;5.28;;;;;;;-3.08;74.84;99924.63;5069351;28;20115;-44
2022/12/15 10:32:51;;;;;;;7.68;4.13;;;;;;;-3.09;74.73;99938.16;5087024;28;20070;-43
2022/12/15 10:35:19;;;;;;;10.57;4.88;;;;;;;-3.16;74.12;99941.41;5091256;28;20032;-44
2022/12/15 10:37:45;;;;;;;9.80;4.65;;;;;;;-3.17;74.16;99934.59;5092362;28;20487;-45
2022/12/15 10:40:48;;;;;;;10.80;5.25;;;;;;;-3.14;74.28;99934.66;5091832;28;20040;-46
2022/12/15 10:43:24;;;;;;;12.52;4.38;;;;;;;-3.10;73.93;99928.84;5083286;28;20055;-44
2022/12/15 10:46:19;;;;;;;11.88;5.88;;;;;;;-3.10;73.76;99941.56;5085703;28;20427;-45
2022/12/15 10:48:46;;;;;;;12.23;5.78;;;;;;;-3.02;73.65;99936.63;5066519;28;20086;-43
2022/12/15 10:51:21;;;;;;;6.15;3.05;;;;;;;-2.94;73.60;99932.63;5071659;28;20123;-43
2022/12/15 10:54:09;;;;;;;10.48;5.60;;;;;;;-2.87;73.61;99938.69;5085510;28;20047;-44
2022/12/15 10:56:47;;;;;;;12.30;5.97;;;;;;;-2.79;73.24;99944.81;5090326;28;20032;-43
2022/12/15 10:59:22;;;;;;;13.98;6.03;;;;;;;-2.80;73.03;99938.00;5090098;28;20059;-42
2022/12/15 11:01:49;;;;;;;12.45;5.38;;;;;;;-2.77;73.14;99932.97;5091624;28;20036;-44
2022/12/15 11:04:31;;;;;;;13.52;5.72;;;;;;;-2.78;73.20;99932.16;5090312;28;20071;-42
2022/12/15 11:06:59;;;;;;;13.70;5.97;;;;;;;-3.11;72.97;99890.66;5091692;28;20075;-43
2022/12/15 11:09:34;;;;;;;10.77;5.40;;;;;;;-2.82;72.93;99942.19;5084935;28;20159;-45
2022/12/15 11:14:47;;;;;;;11.23;5.82;;;;;;;-2.87;72.68;99959.88;5072684;28;20139;-45
2022/12/15 11:17:18;;;;;;;10.52;4.80;;;;;;;-2.91;72.67;99968.28;5070917;28;20037;-43
2022/12/15 11:19:48;;;;;;;15.50;4.20;;;;;;;-3.04;72.34;99972.22;5088177;28;20047;-43
2022/12/15 11:22:34;;;;;;;9.45;4.60;;;;;;;-3.13;73.03;99968.56;5091260;28;20503;-43
2022/12/15 11:25:21;;;;;;;10.60;5.32;;;;;;;-3.12;72.52;99966.06;5073063;28;20070;-44
2022/12/15 11:27:48;;;;;;;11.93;5.78;;;;;;;-3.38;72.62;99918.81;5086724;28;20036;-45
2022/12/15 11:30:21;;;;;;;12.23;5.45;;;;;;;-3.02;73.36;99967.16;5088772;28;20059;-44
2022/12/15 11:32:52;;;;;;;11.18;5.32;;;;;;;-3.01;73.14;99959.56;5089587;28;20040;-43
2022/12/15 11:35:24;;;;;;;11.10;5.50;;;;;;;-3.10;72.79;99959.34;5090610;28;20072;-43
2022/12/15 11:38:11;;;;;;;9.25;4.72;;;;;;;-3.19;72.50;99943.84;5068880;28;20047;-45
2022/12/15 11:40:41;;;;;;;11.90;5.38;;;;;;;-3.12;72.75;99935.56;5090115;28;20568;-44
2022/12/15 11:43:18;;;;;;;12.82;5.43;;;;;;;-3.10;72.38;99935.63;5089311;28;20112;-43
2022/12/15 11:45:48;;;;;;;11.18;5.20;;;;;;;-3.21;72.51;99922.63;5076054;28;20046;-43
2022/12/15 11:48:20;;;;;;;11.57;5.13;;;;;;;-3.19;72.42;99930.31;5086324;28;20064;-44
2022/12/15 11:51:10;;;;;;;10.77;5.05;;;;;;;-3.20;72.83;99936.22;5085866;28;20550;-45
2022/12/15 11:53:45;;;;;;;13.68;5.25;;;;;;;-3.21;72.92;99934.50;5095960;28;20039;-42
2022/12/15 11:56:22;;;;;;;10.82;5.30;;;;;;;-3.18;72.44;99927.78;5075953;28;20052;-44
2022/12/15 11:59:23;;;;;;;13.45;5.60;;;;;;;-3.15;72.38;99935.50;5085777;28;20052;-42
2022/12/15 12:02:29;;;;;;;10.55;4.82;;;;;;;-3.18;72.31;99920.16;5070039;28;20037;-43
2022/12/15 12:05:22;;;;;;;14.45;5.85;;;;;;;-3.21;72.24;99915.00;5102862;28;20598;-44
2022/12/15 12:07:59;;;;;;;11.00;4.95;;;;;;;-3.23;72.56;99909.03;5085540;28;20040;-43
2022/12/15 12:10:34;;;;;;;11.90;5.70;;;;;;;-3.19;72.18;99915.06;5068714;28;20129;-44
2022/12/15 12:13:21;;;;;;;9.20;4.60;;;;;;;-3.26;72.34;99901.34;5068801;28;20093;-43
2022/12/15 12:16:00;;;;;;;11.52;5.82;;;;;;;-3.67;72.10;99844.41;5086456;28;20039;-43
2022/12/15 12:18:30;;;;;;;11.13;5.60;;;;;;;-3.28;72.52;99897.88;5088843;28;20047;-45
2022/12/15 12:21:15;;;;;;;11.77;5.63;;;;;;;-3.30;72.61;99894.47;5088413;28;20036;-44
2022/12/15 12:23:47;;;;;;;10.95;5.60;;;;;;;-3.39;72.57;99883.19;5088296;28;20052;-43
2022/12/15 12:26:21;;;;;;;16.15;6.22;;;;;;;-3.41;72.44;99888.25;5105637;28;20539;-43
2022/12/15 12:28:59;;;;;;;13.60;6.22;;;;;;;-3.44;72.84;99894.09;5086551;28;20069;-42
2022/12/15 12:31:43;;;;;;;12.73;5.28;;;;;;;-3.48;73.45;99886.38;5085043;28;20059;-44
2022/12/15 12:34:21;;;;;;;13.15;6.43;;;;;;;-3.48;72.85;99886.38;5099656;28;20043;-44
2022/12/15 12:36:48;;;;;;;13.90;5.82;;;;;;;-3.49;72.84;99884.66;5079811;28;20515;-44
2022/12/15 12:39:20;;;;;;;12.18;5.50;;;;;;;-3.52;73.46;99880.38;5068297;28;20040;-42
2022/12/15 12:42:04;;;;;;;12.10;5.68;;;;;;;-3.77;73.16;99839.94;5084795;28;20044;-44
2022/12/15 12:44:35;;;;;;;13.90;5.70;;;;;;;-3.60;73.14;99881.84;5068487;28;20082;-43
2022/12/15 12:47:24;;;;;;;15.98;5.45;;;;;;;-3.63;73.39;99886.00;5089168;28;20044;-43
2022/12/15 12:49:57;;;;;;;16.17;6.97;;;;;;;-3.64;73.42;99880.06;5071433;28;20051;-48
2022/12/15 12:52:31;;;;;;;10.93;4.40;;;;;;;-3.65;73.35;99870.69;5089709;28;20419;-43
2022/12/15 12:55:11;;;;;;;15.25;6.95;;;;;;;-3.71;73.02;99854.44;5086705;28;20054;-44
2022/12/15 12:57:40;;;;;;;;;;;;;;;-3.66;73.36;99858.81;5088411;28;20056;-43
2022/12/15 13:00:06;;;;;;;14.52;5.10;;;;;;;-3.78;72.85;99858.53;5078253;28;19927;-45
2022/12/15 13:02:36;;;;;;;11.90;5.65;;;;;;;-3.80;73.36;99852.53;5082331;28;20040;-44
2022/12/15 13:05:28;;;;;;;14.20;6.13;;;;;;;-3.83;73.47;99849.06;5087846;28;20526;-44
2022/12/15 13:08:15;;;;;;;16.40;5.80;;;;;;;-3.89;74.29;99839.63;5104315;28;20066;-45
2022/12/15 13:10:43;;;;;;;12.02;5.18;;;;;;;-4.10;74.12;99793.38;5088935;28;20097;-43
2022/12/15 13:13:18;;;;;;;16.58;6.30;;;;;;;-3.92;74.55;99834.44;5087856;28;20134;-44
2022/12/15 13:15:46;;;;;;;14.98;6.20;;;;;;;-3.91;74.27;99828.53;5063385;28;20109;-43
2022/12/15 13:18:14;;;;;;;12.27;5.97;;;;;;;-3.94;73.79;99814.09;5106443;28;20427;-45
2022/12/15 13:20:42;;;;;;;14.45;6.38;;;;;;;-3.95;74.42;99817.47;5108234;28;20046;-44
2022/12/15 13:23:22;;;;;;;15.40;6.68;;;;;;;-4.15;74.25;99772.94;5109647;28;20040;-45
2022/12/15 13:25:57;;;;;;;20.65;7.10;;;;;;;-3.87;74.56;99803.25;5096027;28;20130;-44
2022/12/15 13:28:25;;;;;;;17.95;6.43;;;;;;;-3.86;74.66;99811.75;5089278;28;20036;-43
2022/12/15 13:31:10;;;;;;;16.90;7.73;;;;;;;-3.93;74.77;99810.75;5088970;28;20072;-42
2022/12/15 13:34:03;;;;;;;17.40;7.28;;;;;;;-3.97;74.54;99800.44;5087471;28;20051;-42
2022/12/15 13:36:35;;;;;;;14.63;6.18;;;;;;;-3.98;74.60;99794.50;5094937;28;20124;-43
2022/12/15 13:39:13;;;;;;;15.52;6.53;;;;;;;-4.06;74.87;99788.41;5084526;28;20070;-45
2022/12/15 13:41:43;;;;;;;23.80;9.38;;;;;;;-4.02;75.33;99782.56;5067445;28;20514;-44
2022/12/15 13:44:20;;;;;;;17.42;7.40;;;;;;;-3.95;75.27;99791.22;5055163;28;20105;-44
2022/12/15 13:46:46;;;;;;;19.77;7.22;;;;;;;-3.99;75.08;99780.13;5088116;28;20032;-43
2022/12/15 13:49:24;;;;;;;20.13;7.10;;;;;;;-4.01;74.32;99784.28;5107521;28;20482;-42
2022/12/15 13:51:58;;;;;;;12.82;6.15;;;;;;;-4.08;74.75;99771.44;5107919;28;20039;-41
2022/12/15 13:54:30;;;;;;;16.88;7.30;;;;;;;-4.04;74.55;99765.59;5096107;28;20123;-44
2022/12/15 13:57:15;;;;;;;18.73;7.07;;;;;;;-4.02;75.07;99769.00;5105582;28;20116;-45
2022/12/15 13:59:49;;;;;;;11.25;5.18;;;;;;;-4.41;74.51;99703.75;5092031;28;20063;-51
2022/12/15 14:02:26;;;;;;;15.07;7.07;;;;;;;-4.03;74.89;99767.31;5087867;28;20088;-45
2022/12/15 14:05:13;;;;;;;13.55;5.80;;;;;;;-4.09;74.57;99779.84;5055292;28;20070;-45
2022/12/15 14:07:46;;;;;;;12.27;5.10;;;;;;;-4.15;74.23;99770.41;5092919;28;20135;-44